Pageland, South Carolina
Current Conditions -  °F | °C
As of 5:53 AM on Monday 20 Oct 2014 (Local Time) from KEQY Reporting Station
Clear Clear  
Wind Chill: 48°   Ceiling: Unl
Heat Index: 48°   Visibility: 10mi
Dew Point: 42°   Wind: 3mph
Humidity: 80%   Direction: NA
Pressure: 30.13"   Gusts: NA
Location:  34.77°N, 80.39°W
Report Text: KEQY 200953Z AUTO VRB03KT 10SM CLR 09/06 A3013 RMK AO2 SLP212 T00890056
Loading
Personal Weather Stations






























Interactive Weather Map New forecast layout! Learn more

10-Day Weather Forecast

Advertisements
Track Severe Weather on mobile